Main page
Satellite images 10-day forecastsClimateMarine weather Cyclones Lightning AirportsFAQ Newsletter About
Weather : Europe Africa North America South America Asia Australia-Oceania Others
Languages Contact

Tunis, Tunisia

Tunis–Carthage International Airport

latitude: 36-50N, longitude: 010-14E, elevation: 3 m


METAR: DTTA 010730Z 26017KT 9999 FEW030 18/08 Q1020 BECMG 27020G38KT
TAF: DTTA 010500Z 0106/0206 27010KT 9999 FEW030 BECMG 0108/0110 28020G30KT

Time: 08:57 (07:57 UTC)

Current weather observation

The report was made 27 minutes ago, at 07:30 UTC
Wind 17 kt from the West
Temperature 18°C
Humidity 52%
Pressure 1020 hPa
Visibility 10 km or more
Few clouds at a height of 3000 ft

Change units

Forecast

The report was made 2 hours and 57 minutes ago, at 05:00 UTC
Forecast valid from 01 at 06 UTC to 02 at 06 UTC
Wind 10 kt from the West
Visibility 10 km or more
Few clouds at a height of 3000 ft
Becoming
from 01 at 08 UTC to 01 at 10 UTC
Wind 20 kt from the West with gusts up to 30 kt
The information on this site is subject to a disclaimer
Weather : Europe Africa North America South America Asia Australia-Oceania Others
Satellite images 10-day forecastsClimateMarine weather Cyclones Lightning AirportsFAQ Languages Contact Newsletter About